Terminal Aerodrome Forecast
Issued by NWS Duluth, MN

Home | Current Version | Previous Version | Text Only | Print | Product List | Glossary On
Versions: 1 2 3 4 5 6 7 8 9 10 11 12 13 14 15 16 17 18 19 20 21 22 23 24 25 26 27 28 29
000
FTUS43 KDLH 150007 RRA
TAFDLH
TAF
KDLH 150007Z 1500/1524 28006KT 6SM -SN OVC027
      TEMPO 1500/1504 2SM -SN BR OVC015
     FM150600 31009KT P6SM OVC025
     FM151100 32008KT P6SM OVC012
     FM151600 30007KT P6SM BKN040
     FM152300 03004KT P6SM VCSH BKN023=

USA.gov is the U.S. government's official web portal to all federal, state and local government web resources and services.